Jp Tsubaki — JD2817 — position and weather

sailwx.info

Track history (hours):
 
Tides and Currents Weather Stations Pressure Air Temp Water Temp Dewpoint Dewpoint Depression Visibility Wind Speed Wind Dir Waves Ship Positions

Jp Tsubaki

Last reported at 2017-May-24 10:00 UTC. Time now 2017-May-24 10:01 UTC.
Position N 35°24' E 139°38'.

Length 115 m; draft 6.4 m.

Type: Cargo ship. MMSI: 431000734.

Date/timePositionNaut miles runAvg speedWind from/ knotsBaromVisibWave heightAir tempDewpointWater temp
2017-May-24 10:00N 35°24' E 139°38'0 0.0
2017-May-24 09:30N 35°24' E 139°38'0 0.0
2017-May-24 09:00N 35°24' E 139°38'0 0.0
2017-May-24 08:30N 35°24' E 139°38'0 0.0
2017-May-24 08:00N 35°24' E 139°38'0 0.0
2017-May-24 07:30N 35°24' E 139°38'0 0.0
2017-May-24 07:00N 35°24' E 139°38'0 0.0
2017-May-24 06:30N 35°24' E 139°38'0 0.0
2017-May-24 06:00N 35°24' E 139°38'0 0.0
2017-May-24 05:30N 35°24' E 139°38'0 0.0
2017-May-24 05:00N 35°24' E 139°38'0 0.0
2017-May-24 04:30N 35°24' E 139°38'0 0.0
2017-May-24 04:00N 35°24' E 139°38'0 0.0
2017-May-24 03:30N 35°24' E 139°38'0 0.0
2017-May-24 03:00N 35°24' E 139°38'0 0.4
2017-May-24 02:30N 35°24' E 139°39'2 4.4
2017-May-24 02:00N 35°23' E 139°41'510.8
2017-May-24 01:30N 35°27' E 139°46'3 6.2
2017-May-24 01:00N 35°30' E 139°45'2 3.3
2017-May-24 00:30N 35°30' E 139°43'0 0.0
2017-May-23 23:59N 35°30' E 139°43'0 0.0
2017-May-23 23:29N 35°30' E 139°43'0 0.0
2017-May-23 22:59N 35°30' E 139°43'0 0.0
2017-May-23 22:29N 35°30' E 139°43'0 0.0
2017-May-23 21:59N 35°30' E 139°43'0 0.0
2017-May-23 21:29N 35°30' E 139°43'0 0.0
2017-May-23 20:59N 35°30' E 139°43'0 0.0
2017-May-23 20:29N 35°30' E 139°43'0 0.0
2017-May-23 19:59N 35°30' E 139°43'0 0.0
2017-May-23 19:29N 35°30' E 139°43'0 0.0
2017-May-23 18:59N 35°30' E 139°43'0 0.0
2017-May-23 18:29N 35°30' E 139°43'0 0.0
2017-May-23 17:59N 35°30' E 139°43'0 0.0
2017-May-23 17:29N 35°30' E 139°43'0 0.0
2017-May-23 16:59N 35°30' E 139°43'0 0.0
2017-May-23 16:29N 35°30' E 139°43'0 0.0
2017-May-23 15:59N 35°30' E 139°43'0 0.0
2017-May-23 15:29N 35°30' E 139°43'0 0.0
2017-May-23 14:59N 35°30' E 139°43'0 0.0
2017-May-23 14:29N 35°30' E 139°43'0 0.0
2017-May-23 13:29N 35°30' E 139°43'0 0.0
2017-May-23 12:59N 35°30' E 139°43'0 0.0
2017-May-23 12:29N 35°30' E 139°43'0 0.0
2017-May-23 11:59N 35°30' E 139°43'0 0.0
2017-May-23 11:26N 35°30' E 139°43'0 0.0
2017-May-23 10:59N 35°30' E 139°43'0 0.0
2017-May-23 10:29N 35°30' E 139°43'0 0.0
2017-May-23 09:59N 35°30' E 139°43'0 0.0
2017-May-23 09:29N 35°30' E 139°43'0 0.0
2017-May-23 08:56N 35°30' E 139°43'0 0.0
2017-May-23 08:29N 35°30' E 139°43'0 0.0
2017-May-23 07:59N 35°30' E 139°43'0 0.0
2017-May-23 07:29N 35°30' E 139°43'0 0.0
2017-May-23 06:59N 35°30' E 139°43'0 0.0
2017-May-23 06:29N 35°30' E 139°43'0 0.0
2017-May-23 05:59N 35°30' E 139°43'0 0.0
2017-May-23 05:29N 35°30' E 139°43'0 0.8
2017-May-23 05:00N 35°29' E 139°43'3 6.6
2017-May-23 04:30N 35°26' E 139°43'4 8.2
2017-May-23 04:00N 35°24' E 139°39'0 0.2
2017-May-23 03:30N 35°24' E 139°39'0 0.0
2017-May-23 03:00N 35°24' E 139°39'0 0.0
2017-May-23 02:30N 35°24' E 139°39'0 0.0
2017-May-23 02:00N 35°24' E 139°39'0 0.0
2017-May-23 01:30N 35°24' E 139°39'0 0.0
2017-May-23 01:00N 35°24' E 139°39'0 0.0
2017-May-23 00:30N 35°24' E 139°39'0 0.0
2017-May-23 00:00N 35°24' E 139°39'0 0.0
2017-May-22 23:30N 35°24' E 139°39'0 0.0
2017-May-22 23:00N 35°24' E 139°39'0 0.0
2017-May-22 22:30N 35°24' E 139°39'0 0.0
2017-May-22 22:00N 35°24' E 139°39'0 0.0
2017-May-22 21:24N 35°24' E 139°39'0 0.0
2017-May-22 21:00N 35°24' E 139°39'0 0.0
2017-May-22 20:24N 35°24' E 139°39'0 0.0
2017-May-22 20:00N 35°24' E 139°39'0 0.0
2017-May-22 19:30N 35°24' E 139°39'0 0.0
2017-May-22 19:00N 35°24' E 139°39'0 0.0
2017-May-22 18:27N 35°24' E 139°39'0 0.1
2017-May-22 18:00N 35°24' E 139°39'0 0.1
2017-May-22 17:30N 35°24' E 139°39'0 0.0
2017-May-22 17:00N 35°24' E 139°39'0 0.0
2017-May-22 16:30N 35°24' E 139°39'0 0.0
2017-May-22 16:00N 35°24' E 139°39'0 0.0
2017-May-22 15:18N 35°24' E 139°39'0 0.0
2017-May-22 15:00N 35°24' E 139°39'0 0.0
2017-May-22 14:00N 35°24' E 139°39'0 0.1
2017-May-22 13:30N 35°24' E 139°39'0 0.6
2017-May-22 13:01N 35°24' E 139°38'4 7.4
2017-May-22 12:31N 35°23' E 139°43'2 3.7
2017-May-22 12:00N 35°24' E 139°45'0 0.0
2017-May-22 11:30N 35°24' E 139°45'0 0.0
2017-May-22 11:00N 35°24' E 139°45'0 0.0
2017-May-22 10:27N 35°24' E 139°45'0 0.0
2017-May-22 10:00N 35°24' E 139°45'0 0.0
2017-May-22 09:30N 35°24' E 139°45'0 0.0
2017-May-22 09:00N 35°24' E 139°45'0 0.0
2017-May-22 08:29N 35°24' E 139°45'0 0.0
2017-May-22 08:00N 35°24' E 139°45'0 0.0
2017-May-22 07:28N 35°24' E 139°45'2 4.5
2017-May-22 07:00N 35°25' E 139°47'5 9.7
2017-May-22 06:30N 35°30' E 139°47'3 6.7
2017-May-22 06:00N 35°30' E 139°43'0 0.3
2017-May-22 05:30N 35°30' E 139°43'0 0.0
2017-May-22 04:59N 35°30' E 139°43'0 0.0
2017-May-22 04:29N 35°30' E 139°43'0 0.0
2017-May-22 03:59N 35°30' E 139°43'0 0.0
2017-May-22 03:29N 35°30' E 139°43'0 0.0
2017-May-22 02:59N 35°30' E 139°43'0 0.0
2017-May-22 02:29N 35°30' E 139°43'0 0.0
2017-May-22 01:59N 35°30' E 139°43'0 0.0
2017-May-22 01:29N 35°30' E 139°43'0 0.0
2017-May-22 00:59N 35°30' E 139°43'0 0.0
2017-May-22 00:29N 35°30' E 139°43'0 0.0
2017-May-21 23:59N 35°30' E 139°43'0 0.0
2017-May-21 23:29N 35°30' E 139°43'0 0.0
2017-May-21 22:59N 35°30' E 139°43'0 0.0
2017-May-21 22:30N 35°30' E 139°43'2 3.9
2017-May-21 22:00N 35°28' E 139°42'4 7.7
2017-May-21 21:30N 35°24' E 139°44'3 5.1
2017-May-21 21:00N 35°22' E 139°44'0 0.0
2017-May-21 20:30N 35°22' E 139°44'0 0.0
2017-May-21 20:00N 35°22' E 139°44'0 0.0
2017-May-21 19:30N 35°22' E 139°44'0 0.0
2017-May-21 19:00N 35°22' E 139°44'0 0.0
2017-May-21 18:24N 35°22' E 139°44'0 0.0
2017-May-21 18:00N 35°22' E 139°44'0 0.0
2017-May-21 17:24N 35°22' E 139°44'0 0.0
2017-May-21 17:00N 35°22' E 139°44'0 0.0
2017-May-21 16:24N 35°22' E 139°44'0 0.0
2017-May-21 16:00N 35°22' E 139°44'0 0.0
2017-May-21 15:27N 35°22' E 139°44'0 0.0
2017-May-21 14:57N 35°22' E 139°44'0 0.0
2017-May-21 14:00N 35°22' E 139°44'0 0.0
2017-May-21 13:30N 35°22' E 139°44'0 0.0
2017-May-21 13:00N 35°22' E 139°44'0 0.0
2017-May-21 12:30N 35°22' E 139°44'0 0.0
2017-May-21 12:00N 35°22' E 139°44'0 0.0
2017-May-21 11:30N 35°22' E 139°44'0 0.0
2017-May-21 11:00N 35°22' E 139°44'0 0.0
2017-May-21 10:30N 35°22' E 139°44'0 0.0
2017-May-21 10:00N 35°22' E 139°44'2 3.3
2017-May-21 09:31N 35°20' E 139°43'612.2
2017-May-21 09:00N 35°15' E 139°47'713.5
2017-May-21 08:30N 35°08' E 139°46'713.4
2017-May-21 07:58N 35°02' E 139°42'24312.1
2017-May-20 11:53N 33°55' E 134°59'512.8
2017-May-20 11:30N 33°59' E 134°58'713.1
2017-May-20 11:00N 34°06' E 134°58'713.6
2017-May-20 10:30N 34°13' E 134°58'713.7
2017-May-20 10:00N 34°20' E 134°59'613.0
2017-May-20 09:30N 34°26' E 135°01'612.9
2017-May-20 09:00N 34°32' E 135°02'510.3
2017-May-20 08:30N 34°37' E 135°00'712.8
2017-May-20 08:00N 34°35' E 134°53'  
Track history (hours):
 
Tides and Currents Weather Stations Pressure Air Temp Water Temp Dewpoint Dewpoint Depression Visibility Wind Speed Wind Dir Waves Ship Positions

Jp Tsubaki

Last reported at 2017-May-24 10:00 UTC. Time now 2017-May-24 10:01 UTC.
Position N 35°24' E 139°38'.

Length 115 m; draft 6.4 m.

Type: Cargo ship. MMSI: 431000734.

Date/timePositionNaut miles runAvg speedWind from/ knotsBaromVisibWave heightAir tempDewpointWater temp
2017-May-24 10:00N 35°24' E 139°38'0 0.0
2017-May-24 09:30N 35°24' E 139°38'0 0.0
2017-May-24 09:00N 35°24' E 139°38'0 0.0
2017-May-24 08:30N 35°24' E 139°38'0 0.0
2017-May-24 08:00N 35°24' E 139°38'0 0.0
2017-May-24 07:30N 35°24' E 139°38'0 0.0
2017-May-24 07:00N 35°24' E 139°38'0 0.0
2017-May-24 06:30N 35°24' E 139°38'0 0.0
2017-May-24 06:00N 35°24' E 139°38'0 0.0
2017-May-24 05:30N 35°24' E 139°38'0 0.0
2017-May-24 05:00N 35°24' E 139°38'0 0.0
2017-May-24 04:30N 35°24' E 139°38'0 0.0
2017-May-24 04:00N 35°24' E 139°38'0 0.0
2017-May-24 03:30N 35°24' E 139°38'0 0.0
2017-May-24 03:00N 35°24' E 139°38'0 0.4
2017-May-24 02:30N 35°24' E 139°39'2 4.4
2017-May-24 02:00N 35°23' E 139°41'510.8
2017-May-24 01:30N 35°27' E 139°46'3 6.2
2017-May-24 01:00N 35°30' E 139°45'2 3.3
2017-May-24 00:30N 35°30' E 139°43'0 0.0
2017-May-23 23:59N 35°30' E 139°43'0 0.0
2017-May-23 23:29N 35°30' E 139°43'0 0.0
2017-May-23 22:59N 35°30' E 139°43'0 0.0
2017-May-23 22:29N 35°30' E 139°43'0 0.0
2017-May-23 21:59N 35°30' E 139°43'0 0.0
2017-May-23 21:29N 35°30' E 139°43'0 0.0
2017-May-23 20:59N 35°30' E 139°43'0 0.0
2017-May-23 20:29N 35°30' E 139°43'0 0.0
2017-May-23 19:59N 35°30' E 139°43'0 0.0
2017-May-23 19:29N 35°30' E 139°43'0 0.0
2017-May-23 18:59N 35°30' E 139°43'0 0.0
2017-May-23 18:29N 35°30' E 139°43'0 0.0
2017-May-23 17:59N 35°30' E 139°43'0 0.0
2017-May-23 17:29N 35°30' E 139°43'0 0.0
2017-May-23 16:59N 35°30' E 139°43'0 0.0
2017-May-23 16:29N 35°30' E 139°43'0 0.0
2017-May-23 15:59N 35°30' E 139°43'0 0.0
2017-May-23 15:29N 35°30' E 139°43'0 0.0
2017-May-23 14:59N 35°30' E 139°43'0 0.0
2017-May-23 14:29N 35°30' E 139°43'0 0.0
2017-May-23 13:29N 35°30' E 139°43'0 0.0
2017-May-23 12:59N 35°30' E 139°43'0 0.0
2017-May-23 12:29N 35°30' E 139°43'0 0.0
2017-May-23 11:59N 35°30' E 139°43'0 0.0
2017-May-23 11:26N 35°30' E 139°43'0 0.0
2017-May-23 10:59N 35°30' E 139°43'0 0.0
2017-May-23 10:29N 35°30' E 139°43'0 0.0
2017-May-23 09:59N 35°30' E 139°43'0 0.0
2017-May-23 09:29N 35°30' E 139°43'0 0.0
2017-May-23 08:56N 35°30' E 139°43'0 0.0
2017-May-23 08:29N 35°30' E 139°43'0 0.0
2017-May-23 07:59N 35°30' E 139°43'0 0.0
2017-May-23 07:29N 35°30' E 139°43'0 0.0
2017-May-23 06:59N 35°30' E 139°43'0 0.0
2017-May-23 06:29N 35°30' E 139°43'0 0.0
2017-May-23 05:59N 35°30' E 139°43'0 0.0
2017-May-23 05:29N 35°30' E 139°43'0 0.8
2017-May-23 05:00N 35°29' E 139°43'3 6.6
2017-May-23 04:30N 35°26' E 139°43'4 8.2
2017-May-23 04:00N 35°24' E 139°39'0 0.2
2017-May-23 03:30N 35°24' E 139°39'0 0.0
2017-May-23 03:00N 35°24' E 139°39'0 0.0
2017-May-23 02:30N 35°24' E 139°39'0 0.0
2017-May-23 02:00N 35°24' E 139°39'0 0.0
2017-May-23 01:30N 35°24' E 139°39'0 0.0
2017-May-23 01:00N 35°24' E 139°39'0 0.0
2017-May-23 00:30N 35°24' E 139°39'0 0.0
2017-May-23 00:00N 35°24' E 139°39'0 0.0
2017-May-22 23:30N 35°24' E 139°39'0 0.0
2017-May-22 23:00N 35°24' E 139°39'0 0.0
2017-May-22 22:30N 35°24' E 139°39'0 0.0
2017-May-22 22:00N 35°24' E 139°39'0 0.0
2017-May-22 21:24N 35°24' E 139°39'0 0.0
2017-May-22 21:00N 35°24' E 139°39'0 0.0
2017-May-22 20:24N 35°24' E 139°39'0 0.0
2017-May-22 20:00N 35°24' E 139°39'0 0.0
2017-May-22 19:30N 35°24' E 139°39'0 0.0
2017-May-22 19:00N 35°24' E 139°39'0 0.0
2017-May-22 18:27N 35°24' E 139°39'0 0.1
2017-May-22 18:00N 35°24' E 139°39'0 0.1
2017-May-22 17:30N 35°24' E 139°39'0 0.0
2017-May-22 17:00N 35°24' E 139°39'0 0.0
2017-May-22 16:30N 35°24' E 139°39'0 0.0
2017-May-22 16:00N 35°24' E 139°39'0 0.0
2017-May-22 15:18N 35°24' E 139°39'0 0.0
2017-May-22 15:00N 35°24' E 139°39'0 0.0
2017-May-22 14:00N 35°24' E 139°39'0 0.1
2017-May-22 13:30N 35°24' E 139°39'0 0.6
2017-May-22 13:01N 35°24' E 139°38'4 7.4
2017-May-22 12:31N 35°23' E 139°43'2 3.7
2017-May-22 12:00N 35°24' E 139°45'0 0.0
2017-May-22 11:30N 35°24' E 139°45'0 0.0
2017-May-22 11:00N 35°24' E 139°45'0 0.0
2017-May-22 10:27N 35°24' E 139°45'0 0.0
2017-May-22 10:00N 35°24' E 139°45'0 0.0
2017-May-22 09:30N 35°24' E 139°45'0 0.0
2017-May-22 09:00N 35°24' E 139°45'0 0.0
2017-May-22 08:29N 35°24' E 139°45'0 0.0
2017-May-22 08:00N 35°24' E 139°45'0 0.0
2017-May-22 07:28N 35°24' E 139°45'2 4.5
2017-May-22 07:00N 35°25' E 139°47'5 9.7
2017-May-22 06:30N 35°30' E 139°47'3 6.7
2017-May-22 06:00N 35°30' E 139°43'0 0.3
2017-May-22 05:30N 35°30' E 139°43'0 0.0
2017-May-22 04:59N 35°30' E 139°43'0 0.0
2017-May-22 04:29N 35°30' E 139°43'0 0.0
2017-May-22 03:59N 35°30' E 139°43'0 0.0
2017-May-22 03:29N 35°30' E 139°43'0 0.0
2017-May-22 02:59N 35°30' E 139°43'0 0.0
2017-May-22 02:29N 35°30' E 139°43'0 0.0
2017-May-22 01:59N 35°30' E 139°43'0 0.0
2017-May-22 01:29N 35°30' E 139°43'0 0.0
2017-May-22 00:59N 35°30' E 139°43'0 0.0
2017-May-22 00:29N 35°30' E 139°43'0 0.0
2017-May-21 23:59N 35°30' E 139°43'0 0.0
2017-May-21 23:29N 35°30' E 139°43'0 0.0
2017-May-21 22:59N 35°30' E 139°43'0 0.0
2017-May-21 22:30N 35°30' E 139°43'2 3.9
2017-May-21 22:00N 35°28' E 139°42'4 7.7
2017-May-21 21:30N 35°24' E 139°44'3 5.1
2017-May-21 21:00N 35°22' E 139°44'0 0.0
2017-May-21 20:30N 35°22' E 139°44'0 0.0
2017-May-21 20:00N 35°22' E 139°44'0 0.0
2017-May-21 19:30N 35°22' E 139°44'0 0.0
2017-May-21 19:00N 35°22' E 139°44'0 0.0
2017-May-21 18:24N 35°22' E 139°44'0 0.0
2017-May-21 18:00N 35°22' E 139°44'0 0.0
2017-May-21 17:24N 35°22' E 139°44'0 0.0
2017-May-21 17:00N 35°22' E 139°44'0 0.0
2017-May-21 16:24N 35°22' E 139°44'0 0.0
2017-May-21 16:00N 35°22' E 139°44'0 0.0
2017-May-21 15:27N 35°22' E 139°44'0 0.0
2017-May-21 14:57N 35°22' E 139°44'0 0.0
2017-May-21 14:00N 35°22' E 139°44'0 0.0
2017-May-21 13:30N 35°22' E 139°44'0 0.0
2017-May-21 13:00N 35°22' E 139°44'0 0.0
2017-May-21 12:30N 35°22' E 139°44'0 0.0
2017-May-21 12:00N 35°22' E 139°44'0 0.0
2017-May-21 11:30N 35°22' E 139°44'0 0.0
2017-May-21 11:00N 35°22' E 139°44'0 0.0
2017-May-21 10:30N 35°22' E 139°44'0 0.0
2017-May-21 10:00N 35°22' E 139°44'2 3.3
2017-May-21 09:31N 35°20' E 139°43'612.2
2017-May-21 09:00N 35°15' E 139°47'713.5
2017-May-21 08:30N 35°08' E 139°46'713.4
2017-May-21 07:58N 35°02' E 139°42'24312.1
2017-May-20 11:53N 33°55' E 134°59'512.8
2017-May-20 11:30N 33°59' E 134°58'713.1
2017-May-20 11:00N 34°06' E 134°58'713.6
2017-May-20 10:30N 34°13' E 134°58'713.7
2017-May-20 10:00N 34°20' E 134°59'613.0
2017-May-20 09:30N 34°26' E 135°01'612.9
2017-May-20 09:00N 34°32' E 135°02'510.3
2017-May-20 08:30N 34°37' E 135°00'712.8
2017-May-20 08:00N 34°35' E 134°53'  

Dump ship's entire track history